Emory, Virginia
Current Conditions -  °F | °C
As of 1:15 AM on Thursday 29 Jan 2015 (Local Time) from KVJI Reporting Station
Clear Clear  
Wind Chill: 22°   Ceiling: Unl
Heat Index: 29°   Visibility: 10mi
Dew Point: 21°   Wind: 7mph
Humidity: 71%   Direction: 90°E
Pressure: 30.21"   Gusts: NA
Location:  36.77°N, 81.84°W
Report Text: KVJI 290615Z AUTO 09006KT 10SM CLR M02/M06 A3021 RMK AO2 T10171063
Loading
Personal Weather Stations






























Interactive Weather Map New forecast layout! Learn more

10-Day Weather Forecast

Advertisements
Track Severe Weather on mobile